Time;durP1;ratioP1;P1;durP2;ratioP2;P2;SDS_P1;SDS_P2;PMS_P1;PMS_P2;Temp;Humidity;BMP_temperature;BMP_pressure;BME280_temperature;BME280_humidity;BME280_pressure;Samples;Min_cycle;Max_cycle;Signal;HPM_P1;HPM_P2
2023/08/17 00:01:54;;;;;;;11.48;10.45;;;;;;;;;;5025842;28;20082;-72
2023/08/17 00:04:20;;;;;;;12.48;11.27;;;;;;;;;;5025131;28;20040;-73
2023/08/17 00:06:46;;;;;;;12.35;11.23;;;;;;;;;;5026642;28;20052;-75
2023/08/17 00:09:12;;;;;;;12.48;11.38;;;;;;;;;;5029439;28;20090;-71
2023/08/17 00:11:38;;;;;;;12.05;11.00;;;;;;;;;;5027603;28;20404;-71
2023/08/17 00:14:03;;;;;;;11.52;10.50;;;;;;;;;;5037558;28;20025;-73
2023/08/17 00:16:29;;;;;;;12.00;10.90;;;;;;;;;;5037878;28;20021;-74
2023/08/17 00:18:54;;;;;;;12.65;11.45;;;;;;;;;;5037726;28;20040;-72
2023/08/17 00:21:19;;;;;;;11.23;10.30;;;;;;;;;;5027349;28;20021;-73
2023/08/17 00:23:45;;;;;;;14.80;11.40;;;;;;;;;;5037696;28;20036;-73
2023/08/17 00:26:10;;;;;;;13.30;12.05;;;;;;;;;;5038208;28;20348;-71
2023/08/17 00:28:35;;;;;;;12.02;10.82;;;;;;;;;;5038145;28;20032;-74
2023/08/17 00:31:01;;;;;;;13.93;12.63;;;;;;;;;;5036421;28;20025;-71
2023/08/17 00:33:26;;;;;;;13.07;11.93;;;;;;;;;;5034208;28;20584;-71
2023/08/17 00:35:52;;;;;;;13.50;12.20;;;;;;;;;;5037745;28;20104;-70
2023/08/17 00:38:17;;;;;;;14.88;11.85;;;;;;;;;;5019248;28;20037;-72
2023/08/17 00:40:43;;;;;;;12.32;11.18;;;;;;;;;;5024455;28;20078;-71
2023/08/17 00:43:08;;;;;;;12.07;10.95;;;;;;;;;;5027295;28;20037;-72
2023/08/17 00:45:34;;;;;;;12.88;10.80;;;;;;;;;;5038951;28;20064;-73
2023/08/17 00:48:00;;;;;;;12.30;11.02;;;;;;;;;;5037716;28;20512;-72
2023/08/17 00:50:26;;;;;;;12.18;11.07;;;;;;;;;;5035148;28;20061;-71
2023/08/17 00:52:52;;;;;;;12.05;10.82;;;;;;;;;;5034899;28;20028;-73
2023/08/17 00:55:17;;;;;;;12.93;11.68;;;;;;;;;;5028624;28;20087;-73
2023/08/17 00:57:43;;;;;;;13.25;11.10;;;;;;;;;;5031687;28;20392;-73
2023/08/17 01:00:10;;;;;;;12.75;11.60;;;;;;;;;;5026879;28;20117;-73
2023/08/17 01:02:38;;;;;;;14.05;11.95;;;;;;;;;;5018896;28;20483;-73
2023/08/17 01:05:05;;;;;;;13.43;12.05;;;;;;;;;;5024834;28;20482;-72
2023/08/17 01:07:31;;;;;;;12.45;11.35;;;;;;;;;;5008084;28;20127;-72
2023/08/17 01:09:56;;;;;;;12.93;11.63;;;;;;;;;;5034977;28;20028;-73
2023/08/17 01:12:31;;;;;;;13.38;12.18;;;;;;;;;;5035973;28;20325;-73
2023/08/17 01:15:15;;;;;;;13.05;11.45;;;;;;;;;;5027495;28;20028;-71
2023/08/17 01:17:46;;;;;;;13.63;12.30;;;;;;;;;;5026608;28;20071;-71
2023/08/17 01:20:13;;;;;;;14.85;12.82;;;;;;;;;;5037978;28;20044;-71
2023/08/17 01:22:41;;;;;;;13.30;12.20;;;;;;;;;;5037595;28;20115;-73
2023/08/17 01:25:07;;;;;;;14.60;12.98;;;;;;;;;;5027241;28;20043;-72
2023/08/17 01:27:38;;;;;;;13.80;12.38;;;;;;;;;;5036396;28;20033;-73
2023/08/17 01:30:04;;;;;;;14.00;12.32;;;;;;;;;;5029776;28;20053;-72
2023/08/17 01:32:49;;;;;;;13.93;12.73;;;;;;;;;;5029780;28;20479;-73
2023/08/17 01:35:17;;;;;;;12.88;11.77;;;;;;;;;;5026303;28;20475;-74
2023/08/17 01:37:44;;;;;;;12.88;11.88;;;;;;;;;;5037212;28;20025;-73
2023/08/17 01:40:11;;;;;;;13.25;12.10;;;;;;;;;;5036301;28;20107;-72
2023/08/17 01:42:37;;;;;;;12.80;11.60;;;;;;;;;;5036374;28;20057;-71
2023/08/17 01:45:02;;;;;;;14.05;12.63;;;;;;;;;;5043113;28;20138;-71
2023/08/17 01:47:29;;;;;;;14.32;12.95;;;;;;;;;;5045618;28;20090;-72
2023/08/17 01:49:59;;;;;;;13.73;12.52;;;;;;;;;;5043516;28;20076;-72
2023/08/17 01:52:26;;;;;;;13.88;12.57;;;;;;;;;;5043627;28;20493;-74
2023/08/17 01:54:51;;;;;;;13.20;11.85;;;;;;;;;;5054178;28;20033;-75
2023/08/17 01:57:17;;;;;;;13.52;12.27;;;;;;;;;;5055631;28;20352;-72
2023/08/17 01:59:42;;;;;;;14.40;13.10;;;;;;;;;;5054788;28;20154;-72
2023/08/17 02:02:08;;;;;;;13.00;11.88;;;;;;;;;;5045470;28;20036;-73
2023/08/17 02:04:33;;;;;;;13.38;12.13;;;;;;;;;;5051272;28;20029;-73
2023/08/17 02:06:59;;;;;;;12.90;11.80;;;;;;;;;;5054635;28;20044;-73
2023/08/17 02:09:24;;;;;;;13.55;12.35;;;;;;;;;;5049116;28;20120;-74
2023/08/17 02:11:49;;;;;;;14.60;11.63;;;;;;;;;;5027655;28;20040;-72
2023/08/17 02:14:15;;;;;;;13.60;12.27;;;;;;;;;;5049992;28;20163;-74
2023/08/17 02:16:40;;;;;;;12.82;11.73;;;;;;;;;;5045898;28;22005;-72
2023/08/17 02:19:05;;;;;;;13.77;12.45;;;;;;;;;;5050503;28;20031;-74
2023/08/17 02:21:31;;;;;;;13.88;12.68;;;;;;;;;;5055801;28;20020;-72
2023/08/17 02:23:56;;;;;;;12.93;11.73;;;;;;;;;;5055794;28;20078;-71
2023/08/17 02:26:21;;;;;;;11.93;10.90;;;;;;;;;;5056309;28;20053;-73
2023/08/17 02:28:47;;;;;;;13.82;12.20;;;;;;;;;;5048654;28;20795;-72
2023/08/17 02:31:12;;;;;;;13.65;11.70;;;;;;;;;;5026064;28;20036;-74
2023/08/17 02:33:38;;;;;;;12.73;11.60;;;;;;;;;;5047104;28;20024;-73
2023/08/17 02:36:03;;;;;;;15.00;12.90;;;;;;;;;;5047200;28;20115;-72
2023/08/17 02:38:29;;;;;;;13.73;12.30;;;;;;;;;;5056515;28;20033;-73
2023/08/17 02:40:54;;;;;;;15.32;12.30;;;;;;;;;;5054449;28;20048;-74
2023/08/17 02:43:19;;;;;;;12.48;11.50;;;;;;;;;;5055011;28;20043;-74
2023/08/17 02:45:45;;;;;;;13.43;12.02;;;;;;;;;;5041437;28;20044;-72
2023/08/17 02:48:10;;;;;;;13.35;12.20;;;;;;;;;;5044300;28;20029;-71
2023/08/17 02:50:35;;;;;;;13.48;12.18;;;;;;;;;;5052836;28;20511;-73
2023/08/17 02:53:02;;;;;;;13.55;12.45;;;;;;;;;;5053309;28;20043;-72
2023/08/17 02:55:27;;;;;;;13.32;12.23;;;;;;;;;;5041868;28;20032;-73
2023/08/17 02:57:52;;;;;;;13.95;12.55;;;;;;;;;;5046175;28;20980;-73
2023/08/17 03:00:18;;;;;;;12.70;11.60;;;;;;;;;;5054387;28;20107;-73
2023/08/17 03:02:43;;;;;;;13.68;12.48;;;;;;;;;;5054893;28;20965;-73
2023/08/17 03:05:08;;;;;;;13.75;12.52;;;;;;;;;;5045831;28;20542;-74
2023/08/17 03:07:34;;;;;;;13.65;12.45;;;;;;;;;;5054883;28;20039;-73
2023/08/17 03:09:59;;;;;;;13.18;11.90;;;;;;;;;;5058581;28;20020;-71
2023/08/17 03:12:24;;;;;;;16.40;11.18;;;;;;;;;;5057959;28;20024;-71
2023/08/17 03:14:50;;;;;;;12.45;11.32;;;;;;;;;;5045108;28;20097;-73
2023/08/17 03:17:15;;;;;;;12.60;11.50;;;;;;;;;;5045574;28;20454;-73
2023/08/17 03:19:40;;;;;;;15.45;13.27;;;;;;;;;;5045829;28;20031;-72
2023/08/17 03:22:06;;;;;;;13.05;11.95;;;;;;;;;;5055198;28;20031;-72
2023/08/17 03:24:31;;;;;;;14.30;12.23;;;;;;;;;;5052517;28;20041;-74
2023/08/17 03:26:57;;;;;;;13.70;12.50;;;;;;;;;;5054000;28;20025;-73
2023/08/17 03:29:22;;;;;;;13.52;12.15;;;;;;;;;;5058052;28;20108;-71
2023/08/17 03:31:49;;;;;;;14.48;12.48;;;;;;;;;;5048814;28;20071;-73
2023/08/17 03:34:14;;;;;;;13.30;12.20;;;;;;;;;;5050545;28;20454;-73
2023/08/17 03:36:40;;;;;;;13.80;12.57;;;;;;;;;;5049609;28;20024;-70
2023/08/17 03:39:05;;;;;;;14.13;12.85;;;;;;;;;;5056709;28;20028;-75
2023/08/17 03:41:31;;;;;;;14.23;12.85;;;;;;;;;;5050110;28;20016;-74
2023/08/17 03:43:56;;;;;;;13.70;12.45;;;;;;;;;;5057793;28;20041;-74
2023/08/17 03:46:21;;;;;;;13.52;12.23;;;;;;;;;;5051758;28;20135;-72
2023/08/17 03:48:47;;;;;;;14.48;12.23;;;;;;;;;;5048225;28;20489;-72
2023/08/17 03:51:12;;;;;;;14.07;12.85;;;;;;;;;;5042807;28;20090;-73
2023/08/17 03:53:37;;;;;;;13.23;11.95;;;;;;;;;;5042576;28;20024;-72
2023/08/17 03:56:03;;;;;;;14.70;13.38;;;;;;;;;;5041261;28;20036;-71
2023/08/17 03:58:33;;;;;;;13.25;11.88;;;;;;;;;;5044728;28;20083;-71
2023/08/17 04:00:58;;;;;;;13.45;12.32;;;;;;;;;;5041178;28;20318;-73
2023/08/17 04:03:24;;;;;;;13.23;12.10;;;;;;;;;;5042463;28;20869;-73
2023/08/17 04:05:49;;;;;;;14.23;12.93;;;;;;;;;;5044377;28;20020;-71
2023/08/17 04:08:14;;;;;;;13.63;12.52;;;;;;;;;;5025725;28;20024;-74
2023/08/17 04:10:40;;;;;;;13.85;12.55;;;;;;;;;;5044754;28;20026;-73
2023/08/17 04:13:05;;;;;;;14.73;13.30;;;;;;;;;;5041454;28;20107;-73
2023/08/17 04:15:30;;;;;;;13.13;11.93;;;;;;;;;;5044599;28;20032;-74
2023/08/17 04:17:56;;;;;;;13.20;12.07;;;;;;;;;;5049352;28;20042;-72
2023/08/17 04:20:22;;;;;;;18.25;12.68;;;;;;;;;;5046453;28;20031;-72
2023/08/17 04:22:48;;;;;;;14.35;13.05;;;;;;;;;;5048409;28;20443;-72
2023/08/17 04:25:13;;;;;;;14.40;12.98;;;;;;;;;;5048809;28;20075;-71
2023/08/17 04:27:39;;;;;;;13.80;12.50;;;;;;;;;;5052759;28;20021;-73
2023/08/17 04:30:04;;;;;;;13.68;12.48;;;;;;;;;;5055455;28;20036;-74
2023/08/17 04:32:30;;;;;;;14.10;12.77;;;;;;;;;;5044290;28;20343;-75
2023/08/17 04:34:55;;;;;;;14.48;12.98;;;;;;;;;;5038084;28;20040;-73
2023/08/17 04:37:21;;;;;;;15.27;14.02;;;;;;;;;;5041633;28;20063;-74
2023/08/17 04:39:48;;;;;;;15.88;14.48;;;;;;;;;;5047306;28;20024;-72
2023/08/17 04:42:14;;;;;;;14.93;13.38;;;;;;;;;;5056643;28;20120;-71
2023/08/17 04:44:39;;;;;;;15.20;13.02;;;;;;;;;;5058806;28;20404;-73
2023/08/17 04:47:05;;;;;;;14.43;13.05;;;;;;;;;;5054571;28;20044;-73
2023/08/17 04:49:30;;;;;;;15.63;14.25;;;;;;;;;;5049051;28;20925;-76
2023/08/17 04:51:56;;;;;;;15.55;14.15;;;;;;;;;;5040797;28;20021;-71
2023/08/17 04:54:21;;;;;;;13.95;12.55;;;;;;;;;;5042483;28;20025;-72
2023/08/17 04:56:46;;;;;;;14.98;13.68;;;;;;;;;;5043592;28;20028;-71
2023/08/17 04:59:12;;;;;;;15.40;14.00;;;;;;;;;;5042299;28;20110;-72
2023/08/17 05:01:38;;;;;;;14.80;13.32;;;;;;;;;;5053122;28;20031;-72
2023/08/17 05:04:03;;;;;;;16.40;14.38;;;;;;;;;;5055262;28;20048;-73
2023/08/17 05:06:29;;;;;;;15.50;14.00;;;;;;;;;;5056086;28;20029;-73
2023/08/17 05:08:54;;;;;;;16.42;14.23;;;;;;;;;;5055949;28;20394;-74
2023/08/17 05:11:20;;;;;;;14.95;13.65;;;;;;;;;;5047189;28;20032;-73
2023/08/17 05:13:45;;;;;;;14.73;13.25;;;;;;;;;;5053810;28;20044;-74
2023/08/17 05:16:10;;;;;;;14.80;13.40;;;;;;;;;;5055272;28;20028;-73
2023/08/17 05:18:36;;;;;;;14.73;13.15;;;;;;;;;;5039264;28;20028;-72
2023/08/17 05:21:01;;;;;;;13.55;12.15;;;;;;;;;;5056412;28;20034;-72
2023/08/17 05:23:26;;;;;;;14.48;13.05;;;;;;;;;;5056789;28;20032;-73
2023/08/17 05:25:52;;;;;;;13.85;12.68;;;;;;;;;;5055317;28;20044;-71
2023/08/17 05:28:17;;;;;;;14.30;12.77;;;;;;;;;;5045473;28;20427;-74
2023/08/17 05:30:43;;;;;;;13.88;12.50;;;;;;;;;;5055708;28;20020;-73
2023/08/17 05:33:08;;;;;;;13.88;12.57;;;;;;;;;;5055204;28;20032;-74
2023/08/17 05:35:33;;;;;;;13.68;12.23;;;;;;;;;;5056804;28;20124;-73
2023/08/17 05:37:59;;;;;;;12.55;11.35;;;;;;;;;;5047001;28;20462;-72
2023/08/17 05:40:25;;;;;;;13.18;11.95;;;;;;;;;;5053582;28;20044;-71
2023/08/17 05:42:50;;;;;;;13.68;12.25;;;;;;;;;;5053665;28;20024;-70
2023/08/17 05:45:15;;;;;;;13.27;11.98;;;;;;;;;;5046888;28;20135;-73
2023/08/17 05:47:41;;;;;;;13.23;11.82;;;;;;;;;;5037010;28;20037;-71
2023/08/17 05:50:06;;;;;;;13.32;11.95;;;;;;;;;;5027969;28;20389;-69
2023/08/17 05:52:32;;;;;;;18.42;12.15;;;;;;;;;;5032787;28;20035;-71
2023/08/17 05:54:57;;;;;;;12.38;11.25;;;;;;;;;;5033170;28;20464;-74
2023/08/17 05:57:23;;;;;;;13.55;11.48;;;;;;;;;;5034521;28;20116;-71
2023/08/17 05:59:48;;;;;;;12.57;11.38;;;;;;;;;;5032851;28;20440;-71
2023/08/17 06:02:14;;;;;;;12.93;10.75;;;;;;;;;;5032538;28;20045;-72
2023/08/17 06:04:39;;;;;;;12.88;11.73;;;;;;;;;;5034041;28;20375;-71
2023/08/17 06:07:05;;;;;;;12.15;10.98;;;;;;;;;;5036790;28;20064;-70
2023/08/17 06:09:31;;;;;;;13.70;10.70;;;;;;;;;;5032517;28;20025;-71
2023/08/17 06:11:56;;;;;;;11.93;10.73;;;;;;;;;;5035080;28;20017;-70
2023/08/17 06:14:22;;;;;;;11.30;10.02;;;;;;;;;;5035101;28;20094;-71
2023/08/17 06:16:47;;;;;;;11.20;10.10;;;;;;;;;;5034942;28;20113;-73
2023/08/17 06:19:13;;;;;;;10.68;9.68;;;;;;;;;;5023991;28;20845;-73
2023/08/17 06:21:38;;;;;;;10.88;9.95;;;;;;;;;;5022933;28;20044;-73
2023/08/17 06:24:04;;;;;;;10.43;9.52;;;;;;;;;;5031280;28;20043;-73
2023/08/17 06:26:29;;;;;;;10.18;9.18;;;;;;;;;;5034911;28;20124;-72
2023/08/17 06:28:54;;;;;;;12.52;10.18;;;;;;;;;;5035240;28;20052;-74
2023/08/17 06:31:20;;;;;;;11.48;8.93;;;;;;;;;;5033744;28;20035;-73
2023/08/17 06:33:45;;;;;;;12.88;10.25;;;;;;;;;;5035642;28;20420;-76
2023/08/17 06:36:13;;;;;;;11.77;9.60;;;;;;;;;;5022050;28;20408;-74
2023/08/17 06:38:38;;;;;;;9.50;8.50;;;;;;;;;;5028226;28;20033;-74
2023/08/17 06:41:03;;;;;;;9.73;8.77;;;;;;;;;;5031078;28;20035;-75
2023/08/17 06:43:29;;;;;;;9.65;8.32;;;;;;;;;;5036225;28;20383;-72
2023/08/17 06:45:56;;;;;;;9.48;8.57;;;;;;;;;;5046793;28;20049;-73
2023/08/17 06:48:21;;;;;;;9.93;8.48;;;;;;;;;;5052115;28;20033;-76
2023/08/17 06:50:46;;;;;;;15.50;9.07;;;;;;;;;;5053869;28;21166;-74
2023/08/17 06:53:12;;;;;;;10.73;8.35;;;;;;;;;;5054041;28;20040;-71
2023/08/17 06:55:37;;;;;;;9.25;8.10;;;;;;;;;;5054033;28;20082;-73
2023/08/17 06:58:02;;;;;;;9.10;8.20;;;;;;;;;;5054379;28;20033;-74
2023/08/17 07:00:28;;;;;;;11.43;7.60;;;;;;;;;;5054548;28;20036;-73
2023/08/17 07:02:53;;;;;;;8.80;8.00;;;;;;;;;;5051640;28;20291;-73
2023/08/17 07:05:19;;;;;;;9.65;7.90;;;;;;;;;;5052057;28;20103;-72
2023/08/17 07:07:44;;;;;;;9.50;7.80;;;;;;;;;;5055225;28;20035;-72
2023/08/17 07:10:13;;;;;;;12.48;8.30;;;;;;;;;;5052968;28;20047;-76
2023/08/17 07:12:38;;;;;;;8.85;8.00;;;;;;;;;;5055234;28;20081;-73
2023/08/17 07:15:04;;;;;;;11.77;8.45;;;;;;;;;;5053581;28;20430;-74
2023/08/17 07:17:30;;;;;;;9.75;8.75;;;;;;;;;;5053562;28;20061;-73
2023/08/17 07:19:55;;;;;;;9.90;8.25;;;;;;;;;;5051733;28;20040;-76
2023/08/17 07:22:21;;;;;;;14.82;9.05;;;;;;;;;;5054613;28;20032;-73
2023/08/17 07:24:46;;;;;;;9.98;8.50;;;;;;;;;;5055611;28;20028;-73
2023/08/17 07:27:11;;;;;;;12.18;8.90;;;;;;;;;;5036746;28;20031;-76
2023/08/17 07:29:36;;;;;;;10.27;8.98;;;;;;;;;;5033460;28;20455;-74
2023/08/17 07:32:02;;;;;;;10.13;9.13;;;;;;;;;;5053280;28;20347;-74
2023/08/17 07:34:31;;;;;;;9.65;8.75;;;;;;;;;;5054535;28;20028;-75
2023/08/17 07:36:56;;;;;;;10.80;9.80;;;;;;;;;;5054415;28;20040;-74
2023/08/17 07:39:22;;;;;;;12.48;9.00;;;;;;;;;;5054117;28;20078;-71
2023/08/17 07:41:47;;;;;;;10.18;9.35;;;;;;;;;;5052935;28;20029;-76
2023/08/17 07:44:13;;;;;;;11.40;8.85;;;;;;;;;;5051816;28;20044;-72
2023/08/17 07:46:38;;;;;;;10.43;9.52;;;;;;;;;;5054850;28;20059;-71
2023/08/17 07:49:03;;;;;;;11.30;10.13;;;;;;;;;;5053750;28;20051;-74
2023/08/17 07:51:31;;;;;;;10.85;9.95;;;;;;;;;;5052754;28;20025;-73
2023/08/17 07:53:56;;;;;;;11.75;10.38;;;;;;;;;;5054838;28;20021;-77
2023/08/17 07:56:22;;;;;;;12.95;11.10;;;;;;;;;;5058958;28;20113;-74
2023/08/17 07:58:47;;;;;;;13.68;10.70;;;;;;;;;;5056591;28;20040;-73
2023/08/17 08:01:12;;;;;;;12.65;11.32;;;;;;;;;;5056378;28;20105;-72
2023/08/17 08:03:38;;;;;;;12.15;10.90;;;;;;;;;;5054943;28;20055;-72
2023/08/17 08:06:03;;;;;;;11.75;10.65;;;;;;;;;;5055332;28;20398;-72
2023/08/17 08:08:28;;;;;;;11.80;10.63;;;;;;;;;;5055366;28;20032;-74
2023/08/17 08:10:54;;;;;;;10.40;9.50;;;;;;;;;;5056136;28;20108;-73
2023/08/17 08:13:20;;;;;;;10.82;9.82;;;;;;;;;;5058077;28;20032;-73
2023/08/17 08:15:45;;;;;;;12.75;9.70;;;;;;;;;;5057813;28;20043;-72
2023/08/17 08:18:10;;;;;;;10.95;9.30;;;;;;;;;;5056612;28;20503;-74
2023/08/17 08:20:36;;;;;;;11.40;9.57;;;;;;;;;;5055728;28;20035;-72
2023/08/17 08:23:02;;;;;;;8.73;7.80;;;;;;;;;;5037712;28;20029;-74
2023/08/17 08:25:27;;;;;;;8.95;7.70;;;;;;;;;;5057485;28;20024;-73
2023/08/17 08:27:52;;;;;;;9.15;8.23;;;;;;;;;;5055075;28;20029;-74
2023/08/17 08:30:18;;;;;;;12.50;8.32;;;;;;;;;;5055956;28;20029;-71
2023/08/17 08:32:43;;;;;;;11.55;7.72;;;;;;;;;;5054695;28;20024;-76
2023/08/17 08:35:09;;;;;;;7.85;7.00;;;;;;;;;;5056074;28;20444;-70
2023/08/17 08:37:34;;;;;;;10.05;7.03;;;;;;;;;;5055301;28;20032;-72
2023/08/17 08:39:59;;;;;;;8.65;7.13;;;;;;;;;;5050749;28;21037;-72
2023/08/17 08:42:25;;;;;;;9.23;7.40;;;;;;;;;;5049604;28;20131;-74
2023/08/17 08:44:51;;;;;;;7.55;6.85;;;;;;;;;;5057565;28;20041;-72
2023/08/17 08:47:17;;;;;;;10.00;7.07;;;;;;;;;;5058543;28;20028;-74
2023/08/17 08:49:53;;;;;;;8.88;7.38;;;;;;;;;;5075680;28;20073;-73
2023/08/17 08:52:22;;;;;;;10.77;7.53;;;;;;;;;;5075741;28;20027;-73
2023/08/17 08:54:49;;;;;;;8.90;6.90;;;;;;;;;;5075054;28;20415;-72
2023/08/17 08:57:15;;;;;;;9.13;7.55;;;;;;;;;;5074122;28;20123;-71
2023/08/17 08:59:44;;;;;;;9.27;7.13;;;;;;;;;;5075907;28;20116;-72
2023/08/17 09:02:13;;;;;;;8.45;6.93;;;;;;;;;;5071891;28;20032;-71
2023/08/17 09:04:38;;;;;;;;;;;;;;;;;;5073332;28;20042;-71
2023/08/17 09:07:03;;;;;;;8.40;7.50;;;;;;;;;;5074165;28;19908;-72
2023/08/17 09:09:29;;;;;;;8.00;7.07;;;;;;;;;;5075260;28;20591;-71
2023/08/17 09:11:54;;;;;;;9.07;6.75;;;;;;;;;;5073365;28;20052;-72
2023/08/17 09:14:19;;;;;;;11.98;7.13;;;;;;;;;;5072085;28;20851;-70
2023/08/17 09:16:45;;;;;;;9.68;7.38;;;;;;;;;;5073204;28;20036;-73
2023/08/17 09:19:10;;;;;;;7.15;6.55;;;;;;;;;;5074848;28;20060;-74
2023/08/17 09:21:35;;;;;;;9.73;6.68;;;;;;;;;;5075441;28;20440;-72
2023/08/17 09:24:01;;;;;;;15.43;7.25;;;;;;;;;;5072915;28;20024;-72
2023/08/17 09:26:30;;;;;;;7.60;6.75;;;;;;;;;;5075091;28;20430;-75
2023/08/17 09:28:56;;;;;;;8.23;7.43;;;;;;;;;;5064899;28;20447;-75
2023/08/17 09:31:23;;;;;;;10.05;7.00;;;;;;;;;;5063379;28;20024;-73
2023/08/17 09:33:49;;;;;;;7.88;6.80;;;;;;;;;;5070346;28;20028;-74
2023/08/17 09:36:15;;;;;;;7.45;6.70;;;;;;;;;;5077167;28;20444;-73
2023/08/17 09:38:40;;;;;;;7.18;6.40;;;;;;;;;;5076420;28;20024;-74
2023/08/17 09:41:06;;;;;;;9.15;6.43;;;;;;;;;;5070831;28;20320;-74
2023/08/17 09:43:33;;;;;;;7.88;6.28;;;;;;;;;;5068589;28;20074;-72
2023/08/17 09:45:59;;;;;;;7.43;6.47;;;;;;;;;;5076065;28;20352;-71
2023/08/17 09:48:24;;;;;;;6.72;6.13;;;;;;;;;;5062462;28;20085;-71
2023/08/17 09:50:50;;;;;;;7.63;6.65;;;;;;;;;;5077848;28;20054;-71
2023/08/17 09:53:16;;;;;;;6.68;6.00;;;;;;;;;;5076083;28;20115;-75
2023/08/17 09:55:43;;;;;;;6.22;5.63;;;;;;;;;;5074669;28;20164;-73
2023/08/17 09:58:08;;;;;;;7.38;6.07;;;;;;;;;;5073847;28;21033;-71
2023/08/17 10:00:34;;;;;;;6.43;5.88;;;;;;;;;;5074033;28;21010;-72
2023/08/17 10:03:01;;;;;;;8.93;6.15;;;;;;;;;;5072746;28;20023;-72
2023/08/17 10:05:28;;;;;;;6.38;5.65;;;;;;;;;;5073838;28;20032;-74
2023/08/17 10:07:56;;;;;;;8.00;5.95;;;;;;;;;;5073676;28;20443;-72
2023/08/17 10:10:24;;;;;;;10.90;5.33;;;;;;;;;;5072750;28;20443;-70
2023/08/17 10:12:54;;;;;;;6.47;5.20;;;;;;;;;;5075500;28;20359;-73
2023/08/17 10:15:19;;;;;;;6.35;5.10;;;;;;;;;;5073234;28;20433;-75
2023/08/17 10:18:07;;;;;;;6.10;5.40;;;;;;;;;;5073872;28;20031;-74
2023/08/17 10:20:34;;;;;;;6.40;5.43;;;;;;;;;;5075088;28;20028;-74
2023/08/17 10:23:10;;;;;;;5.20;4.70;;;;;;;;;;5076459;28;20031;-73
2023/08/17 10:25:37;;;;;;;9.23;5.07;;;;;;;;;;5065923;28;20039;-72
2023/08/17 10:28:03;;;;;;;6.25;5.25;;;;;;;;;;5063921;28;20031;-74
2023/08/17 10:30:29;;;;;;;7.63;4.82;;;;;;;;;;5070450;28;20059;-72
2023/08/17 10:32:54;;;;;;;6.10;5.25;;;;;;;;;;5076249;28;20125;-73
2023/08/17 10:35:20;;;;;;;9.80;5.45;;;;;;;;;;5073176;28;20149;-74
2023/08/17 10:37:45;;;;;;;6.30;5.07;;;;;;;;;;5074750;28;20100;-72
2023/08/17 10:40:11;;;;;;;7.65;4.82;;;;;;;;;;5072703;28;20032;-72
2023/08/17 10:42:36;;;;;;;6.82;5.10;;;;;;;;;;5074393;28;20101;-71
2023/08/17 10:45:22;;;;;;;7.13;5.10;;;;;;;;;;5073807;28;20094;-72
2023/08/17 10:47:48;;;;;;;5.00;4.35;;;;;;;;;;5072924;28;20128;-74
2023/08/17 10:50:20;;;;;;;5.25;4.10;;;;;;;;;;5075583;28;20462;-73
2023/08/17 10:52:48;;;;;;;4.40;4.00;;;;;;;;;;5072048;28;20519;-73
2023/08/17 10:55:13;;;;;;;5.75;4.30;;;;;;;;;;5073532;28;20535;-72
2023/08/17 10:57:38;;;;;;;7.50;4.43;;;;;;;;;;5066295;28;20131;-73
2023/08/17 11:00:07;;;;;;;6.13;3.92;;;;;;;;;;5060747;28;20050;-73
2023/08/17 11:02:33;;;;;;;4.88;4.00;;;;;;;;;;5061704;28;20035;-71
2023/08/17 11:04:59;;;;;;;5.32;3.35;;;;;;;;;;5073110;28;20913;-74
2023/08/17 11:07:25;;;;;;;4.15;3.70;;;;;;;;;;5072284;28;20450;-73
2023/08/17 11:09:53;;;;;;;4.30;3.42;;;;;;;;;;5074270;28;20035;-73
2023/08/17 11:12:25;;;;;;;4.32;3.63;;;;;;;;;;5075815;28;20028;-76
2023/08/17 11:14:50;;;;;;;4.47;3.42;;;;;;;;;;5073721;28;20032;-74
2023/08/17 11:17:16;;;;;;;8.10;4.00;;;;;;;;;;5073392;28;20460;-72
2023/08/17 11:19:41;;;;;;;6.32;3.88;;;;;;;;;;5062003;28;20104;-73
2023/08/17 11:22:07;;;;;;;4.28;3.65;;;;;;;;;;5073605;28;20024;-71
2023/08/17 11:24:33;;;;;;;6.70;3.75;;;;;;;;;;5074669;28;20028;-72
2023/08/17 11:26:58;;;;;;;4.15;3.65;;;;;;;;;;5071057;28;20029;-74
2023/08/17 11:29:24;;;;;;;4.53;3.53;;;;;;;;;;5077951;28;20118;-72
2023/08/17 11:31:50;;;;;;;4.45;4.00;;;;;;;;;;5066063;28;20331;-72
2023/08/17 11:34:15;;;;;;;9.30;3.50;;;;;;;;;;5076279;28;20031;-73
2023/08/17 11:36:41;;;;;;;4.55;3.50;;;;;;;;;;5074787;28;20457;-72
2023/08/17 11:39:06;;;;;;;4.82;3.65;;;;;;;;;;5077463;28;20092;-72
2023/08/17 11:41:32;;;;;;;7.72;3.95;;;;;;;;;;5079428;28;20432;-71
2023/08/17 11:43:58;;;;;;;3.92;3.53;;;;;;;;;;5078298;28;20028;-70
2023/08/17 11:46:25;;;;;;;5.55;3.55;;;;;;;;;;5076635;28;20415;-73
2023/08/17 11:48:53;;;;;;;3.85;3.40;;;;;;;;;;5076268;28;20028;-74
2023/08/17 11:51:28;;;;;;;4.47;3.70;;;;;;;;;;5075035;28;20047;-73
2023/08/17 11:53:53;;;;;;;4.18;3.75;;;;;;;;;;5075013;28;20455;-70
2023/08/17 11:56:18;;;;;;;5.90;3.88;;;;;;;;;;5077370;28;20027;-71
2023/08/17 11:58:45;;;;;;;4.25;3.85;;;;;;;;;;5074979;28;20436;-72
2023/08/17 12:01:11;;;;;;;6.88;3.80;;;;;;;;;;5073169;28;20024;-71
2023/08/17 12:03:36;;;;;;;6.97;3.58;;;;;;;;;;5077884;28;20086;-75
2023/08/17 12:06:02;;;;;;;4.20;3.70;;;;;;;;;;5073075;28;20093;-74
2023/08/17 12:08:27;;;;;;;7.45;3.85;;;;;;;;;;5070552;28;20390;-70
2023/08/17 12:10:52;;;;;;;4.35;3.80;;;;;;;;;;5073225;28;20107;-74
2023/08/17 12:13:18;;;;;;;6.05;4.13;;;;;;;;;;5076693;28;20066;-72
2023/08/17 12:15:44;;;;;;;4.43;4.00;;;;;;;;;;5075482;28;20413;-73
2023/08/17 12:18:09;;;;;;;5.60;4.13;;;;;;;;;;5072522;28;20117;-72
2023/08/17 12:20:38;;;;;;;4.03;3.63;;;;;;;;;;5049324;28;20036;-72
2023/08/17 12:23:03;;;;;;;5.47;3.78;;;;;;;;;;5065014;28;20436;-73
2023/08/17 12:25:30;;;;;;;3.60;3.30;;;;;;;;;;5064009;28;20035;-72
2023/08/17 12:27:57;;;;;;;9.45;3.75;;;;;;;;;;5046117;28;20057;-73
2023/08/17 12:30:25;;;;;;;9.30;3.60;;;;;;;;;;5062789;28;20039;-73
2023/08/17 12:32:51;;;;;;;5.95;3.63;;;;;;;;;;5067119;28;20066;-72
2023/08/17 12:35:16;;;;;;;5.38;4.20;;;;;;;;;;5075717;28;20038;-77
2023/08/17 12:37:42;;;;;;;7.32;4.22;;;;;;;;;;5067622;28;20154;-71
2023/08/17 12:40:08;;;;;;;5.25;4.10;;;;;;;;;;5047139;28;20020;-77
2023/08/17 12:42:33;;;;;;;5.57;4.30;;;;;;;;;;5065519;28;20077;-73
2023/08/17 12:44:58;;;;;;;3.95;3.63;;;;;;;;;;5063456;28;20375;-74
2023/08/17 12:47:24;;;;;;;7.00;4.13;;;;;;;;;;5064998;28;20044;-72
2023/08/17 12:49:49;;;;;;;5.05;3.85;;;;;;;;;;5066386;28;20295;-77
2023/08/17 12:52:14;;;;;;;3.92;3.45;;;;;;;;;;5070790;28;20395;-75
2023/08/17 12:54:40;;;;;;;5.13;3.67;;;;;;;;;;5063530;28;20032;-75
2023/08/17 12:57:05;;;;;;;7.03;3.92;;;;;;;;;;5068270;28;20041;-77
2023/08/17 12:59:30;;;;;;;7.85;4.15;;;;;;;;;;5064704;28;20070;-74
2023/08/17 13:01:56;;;;;;;5.60;3.78;;;;;;;;;;5063315;28;20031;-72
2023/08/17 13:04:21;;;;;;;4.03;3.72;;;;;;;;;;5063877;28;20394;-73
2023/08/17 13:06:47;;;;;;;6.80;4.40;;;;;;;;;;5068511;28;20028;-72
2023/08/17 13:09:14;;;;;;;5.40;4.28;;;;;;;;;;5064005;28;20027;-70
2023/08/17 13:11:39;;;;;;;5.63;4.18;;;;;;;;;;5063268;28;20022;-72
2023/08/17 13:14:05;;;;;;;5.18;4.07;;;;;;;;;;5069271;28;20346;-70
2023/08/17 13:16:30;;;;;;;6.22;3.92;;;;;;;;;;5072517;28;20129;-75
2023/08/17 13:18:55;;;;;;;5.65;4.07;;;;;;;;;;5077021;28;20089;-72
2023/08/17 13:21:21;;;;;;;5.32;3.85;;;;;;;;;;5074885;28;20035;-70
2023/08/17 13:23:46;;;;;;;6.53;3.95;;;;;;;;;;5075946;28;20024;-72
2023/08/17 13:26:11;;;;;;;5.55;3.80;;;;;;;;;;5045253;28;20039;-71
2023/08/17 13:28:37;;;;;;;5.80;4.47;;;;;;;;;;5070581;28;20060;-70
2023/08/17 13:31:03;;;;;;;6.30;4.10;;;;;;;;;;5077378;28;20087;-70
2023/08/17 13:33:28;;;;;;;6.28;4.38;;;;;;;;;;5067547;28;20106;-72
2023/08/17 13:35:54;;;;;;;8.82;4.22;;;;;;;;;;5070168;28;20094;-73
2023/08/17 13:38:19;;;;;;;4.05;3.72;;;;;;;;;;5068294;28;23486;-73
2023/08/17 13:40:45;;;;;;;7.32;4.20;;;;;;;;;;5045817;28;20111;-74
2023/08/17 13:43:13;;;;;;;6.38;4.35;;;;;;;;;;5053147;28;20118;-75
2023/08/17 13:45:39;;;;;;;4.57;4.18;;;;;;;;;;5058310;28;20040;-76
2023/08/17 13:48:05;;;;;;;4.72;4.30;;;;;;;;;;5066592;28;20347;-71
2023/08/17 13:50:30;;;;;;;7.50;4.32;;;;;;;;;;5060761;28;20332;-75
2023/08/17 13:53:00;;;;;;;7.35;4.00;;;;;;;;;;5044851;28;20038;-75
2023/08/17 13:55:25;;;;;;;5.60;4.05;;;;;;;;;;5057271;28;20035;-76
2023/08/17 13:57:52;;;;;;;6.53;4.22;;;;;;;;;;5062139;28;20028;-74
2023/08/17 14:00:18;;;;;;;5.75;4.80;;;;;;;;;;5061577;28;20035;-76
2023/08/17 14:02:43;;;;;;;6.95;4.97;;;;;;;;;;5062700;28;20028;-73
2023/08/17 14:05:08;;;;;;;5.28;4.18;;;;;;;;;;5061419;28;20111;-75
2023/08/17 14:07:34;;;;;;;7.47;4.63;;;;;;;;;;5061645;28;20028;-74
2023/08/17 14:09:59;;;;;;;9.70;4.70;;;;;;;;;;5060659;28;20043;-74
2023/08/17 14:12:25;;;;;;;5.60;4.68;;;;;;;;;;5061693;28;20031;-73
2023/08/17 14:14:50;;;;;;;5.03;4.40;;;;;;;;;;5062040;28;20032;-75
2023/08/17 14:17:15;;;;;;;5.30;4.10;;;;;;;;;;5058477;28;20025;-76
2023/08/17 14:19:42;;;;;;;6.68;4.00;;;;;;;;;;5057231;28;20416;-74
2023/08/17 14:22:09;;;;;;;5.13;4.50;;;;;;;;;;5059582;28;20024;-74
2023/08/17 14:24:34;;;;;;;4.93;4.45;;;;;;;;;;5063016;28;20054;-74